Time;durP1;ratioP1;P1;durP2;ratioP2;P2;SDS_P1;SDS_P2;PMS_P1;PMS_P2;Temp;Humidity;BMP_temperature;BMP_pressure;BME280_temperature;BME280_humidity;BME280_pressure;Samples;Min_cycle;Max_cycle;Signal;HPM_P1;HPM_P2
2022/11/24 00:01:16;;;;;;;23.80;8.52;;;;;;;;;;5055849;28;20492;-75
2022/11/24 00:03:46;;;;;;;23.85;4.57;;;;;;;;;;5056057;28;20060;-75
2022/11/24 00:06:14;;;;;;;44.10;13.93;;;;;;;;;;5055731;28;20508;-75
2022/11/24 00:08:41;;;;;;;16.02;3.92;;;;;;;;;;5055672;28;20075;-75
2022/11/24 00:11:09;;;;;;;28.73;4.80;;;;;;;;;;5055709;28;20076;-75
2022/11/24 00:13:37;;;;;;;23.35;4.82;;;;;;;;;;5056451;28;20052;-75
2022/11/24 00:16:07;;;;;;;29.45;4.55;;;;;;;;;;5055809;28;20492;-75
2022/11/24 00:18:33;;;;;;;20.98;5.03;;;;;;;;;;5055477;28;20048;-75
2022/11/24 00:20:59;;;;;;;27.55;4.65;;;;;;;;;;5055778;28;20045;-75
2022/11/24 00:23:25;;;;;;;26.92;4.43;;;;;;;;;;5055570;28;20048;-75
2022/11/24 00:25:51;;;;;;;22.23;3.92;;;;;;;;;;5055499;28;20056;-75
2022/11/24 00:28:17;;;;;;;18.33;4.00;;;;;;;;;;5056291;28;20484;-75
2022/11/24 00:30:44;;;;;;;20.38;4.05;;;;;;;;;;5055957;28;20055;-75
2022/11/24 00:33:10;;;;;;;17.92;4.00;;;;;;;;;;5055485;28;20045;-75
2022/11/24 00:35:36;;;;;;;14.90;3.42;;;;;;;;;;5055506;28;20075;-75
2022/11/24 00:38:02;;;;;;;19.55;4.10;;;;;;;;;;5055534;28;20051;-75
2022/11/24 00:40:28;;;;;;;20.52;4.68;;;;;;;;;;5055957;28;20037;-75
2022/11/24 00:42:54;;;;;;;21.60;3.53;;;;;;;;;;5055522;28;20052;-75
2022/11/24 00:45:20;;;;;;;21.27;4.05;;;;;;;;;;5055947;28;20041;-75
2022/11/24 00:47:46;;;;;;;19.77;3.55;;;;;;;;;;5055200;28;20098;-75
2022/11/24 00:50:12;;;;;;;24.08;4.45;;;;;;;;;;5056076;28;20048;-75
2022/11/24 00:52:39;;;;;;;18.73;3.50;;;;;;;;;;5055568;28;20037;-75
2022/11/24 00:55:05;;;;;;;22.98;4.35;;;;;;;;;;5055236;28;20068;-75
2022/11/24 00:57:33;;;;;;;18.33;3.75;;;;;;;;;;5055671;28;20045;-75
2022/11/24 01:00:00;;;;;;;19.63;3.20;;;;;;;;;;5055639;28;20043;-75
2022/11/24 01:02:26;;;;;;;22.58;4.28;;;;;;;;;;5055266;28;20053;-75
2022/11/24 01:04:52;;;;;;;28.77;3.95;;;;;;;;;;5055122;28;20037;-75
2022/11/24 01:07:18;;;;;;;19.90;3.70;;;;;;;;;;5055597;28;20537;-75
2022/11/24 01:09:44;;;;;;;15.75;2.65;;;;;;;;;;5055735;28;20037;-75
2022/11/24 01:12:10;;;;;;;16.88;3.83;;;;;;;;;;5054671;28;20051;-75
2022/11/24 01:14:36;;;;;;;17.42;3.95;;;;;;;;;;5055352;28;20065;-75
2022/11/24 01:17:03;;;;;;;19.80;3.40;;;;;;;;;;5054995;28;20073;-75
2022/11/24 01:19:29;;;;;;;25.10;4.88;;;;;;;;;;5054734;28;20162;-75
2022/11/24 01:21:55;;;;;;;23.67;4.05;;;;;;;;;;5054223;28;20103;-75
2022/11/24 01:24:21;;;;;;;22.55;3.67;;;;;;;;;;5055421;28;20143;-75
2022/11/24 01:26:48;;;;;;;21.25;3.88;;;;;;;;;;5055253;28;20054;-75
2022/11/24 01:29:14;;;;;;;24.33;4.45;;;;;;;;;;5055452;28;20037;-75
2022/11/24 01:31:40;;;;;;;29.33;4.47;;;;;;;;;;5054482;28;20120;-75
2022/11/24 01:34:06;;;;;;;22.38;4.93;;;;;;;;;;5055533;28;20036;-75
2022/11/24 01:36:33;;;;;;;18.88;3.20;;;;;;;;;;5055048;28;20041;-75
2022/11/24 01:38:59;;;;;;;20.20;3.60;;;;;;;;;;5054820;28;20052;-75
2022/11/24 01:41:25;;;;;;;15.02;3.17;;;;;;;;;;5054504;28;20052;-75
2022/11/24 01:43:52;;;;;;;23.13;3.70;;;;;;;;;;5054655;28;20128;-75
2022/11/24 01:46:18;;;;;;;22.73;3.72;;;;;;;;;;5054665;28;20045;-75
2022/11/24 01:48:47;;;;;;;19.92;3.33;;;;;;;;;;5054725;28;20044;-75
2022/11/24 01:51:16;;;;;;;22.58;3.63;;;;;;;;;;5054588;28;20044;-75
2022/11/24 01:53:45;;;;;;;22.45;5.13;;;;;;;;;;5054393;28;20094;-75
2022/11/24 01:56:12;;;;;;;20.60;3.85;;;;;;;;;;5054243;28;20051;-75
2022/11/24 01:58:40;;;;;;;18.40;3.58;;;;;;;;;;5054585;28;20037;-75
2022/11/24 02:01:06;;;;;;;16.40;3.25;;;;;;;;;;5054815;28;20041;-75
2022/11/24 02:03:35;;;;;;;20.17;3.40;;;;;;;;;;5054395;28;20048;-75
2022/11/24 02:06:04;;;;;;;22.17;4.07;;;;;;;;;;5054467;28;20545;-75
2022/11/24 02:08:39;;;;;;;21.70;3.42;;;;;;;;;;5054162;28;20049;-76
2022/11/24 02:11:05;;;;;;;23.52;3.75;;;;;;;;;;5054184;28;20049;-75
2022/11/24 02:13:36;;;;;;;16.92;3.35;;;;;;;;;;5054102;28;20526;-75
2022/11/24 02:16:02;;;;;;;21.30;3.25;;;;;;;;;;5054783;28;20040;-75
2022/11/24 02:18:28;;;;;;;19.48;3.65;;;;;;;;;;5054356;28;20025;-75
2022/11/24 02:20:55;;;;;;;21.33;3.60;;;;;;;;;;5054927;28;20051;-75
2022/11/24 02:23:29;;;;;;;15.27;3.25;;;;;;;;;;5054225;28;20128;-75
2022/11/24 02:26:01;;;;;;;21.55;3.88;;;;;;;;;;5054149;28;20132;-75
2022/11/24 02:28:32;;;;;;;16.88;3.60;;;;;;;;;;5054089;28;20041;-75
2022/11/24 02:30:59;;;;;;;25.65;3.83;;;;;;;;;;5053442;28;20435;-75
2022/11/24 02:33:25;;;;;;;24.00;4.57;;;;;;;;;;5057241;28;20072;-75
2022/11/24 02:35:52;;;;;;;26.27;4.65;;;;;;;;;;5057714;28;20519;-75
2022/11/24 02:38:18;;;;;;;22.73;3.47;;;;;;;;;;5057623;28;20033;-75
2022/11/24 02:40:47;;;;;;;25.27;3.50;;;;;;;;;;5057821;28;20119;-75
2022/11/24 02:43:16;;;;;;;15.77;3.30;;;;;;;;;;5057183;28;20484;-75
2022/11/24 02:45:42;;;;;;;26.50;3.72;;;;;;;;;;5057551;28;20043;-75
2022/11/24 02:48:08;;;;;;;22.02;4.20;;;;;;;;;;5057670;28;20040;-75
2022/11/24 02:50:34;;;;;;;17.83;3.42;;;;;;;;;;5058055;28;20056;-75
2022/11/24 02:53:00;;;;;;;28.48;4.38;;;;;;;;;;5057385;28;20068;-75
2022/11/24 02:55:26;;;;;;;27.98;4.07;;;;;;;;;;5057397;28;20036;-75
2022/11/24 02:57:52;;;;;;;23.25;3.70;;;;;;;;;;5057270;28;20037;-75
2022/11/24 03:00:19;;;;;;;25.55;3.53;;;;;;;;;;5057379;28;20049;-75
2022/11/24 03:02:45;;;;;;;25.58;4.70;;;;;;;;;;5057299;28;20140;-75
2022/11/24 03:05:12;;;;;;;26.42;4.00;;;;;;;;;;5056893;28;20049;-75
2022/11/24 03:07:38;;;;;;;21.15;3.10;;;;;;;;;;5057334;28;20492;-75
2022/11/24 03:10:04;;;;;;;23.10;3.78;;;;;;;;;;5057415;28;20037;-75
2022/11/24 03:12:30;;;;;;;19.58;3.55;;;;;;;;;;5057014;28;20551;-75
2022/11/24 03:14:56;;;;;;;30.02;4.22;;;;;;;;;;5057047;28;20128;-75
2022/11/24 03:17:23;;;;;;;16.15;3.25;;;;;;;;;;5056658;28;20063;-75
2022/11/24 03:19:49;;;;;;;23.75;3.90;;;;;;;;;;5057232;28;20045;-75
2022/11/24 03:22:15;;;;;;;24.60;3.67;;;;;;;;;;5056767;28;20045;-75
2022/11/24 03:24:41;;;;;;;22.90;3.97;;;;;;;;;;5057403;28;20067;-75
2022/11/24 03:27:07;;;;;;;21.42;3.95;;;;;;;;;;5056382;28;20049;-75
2022/11/24 03:29:33;;;;;;;17.48;3.50;;;;;;;;;;5057315;28;20546;-75
2022/11/24 03:31:59;;;;;;;23.92;3.88;;;;;;;;;;5056955;28;20043;-75
2022/11/24 03:34:25;;;;;;;21.17;3.28;;;;;;;;;;5056828;28;20060;-75
2022/11/24 03:36:51;;;;;;;21.05;3.88;;;;;;;;;;5056563;28;20113;-75
2022/11/24 03:39:17;;;;;;;23.75;3.83;;;;;;;;;;5057167;28;20051;-75
2022/11/24 03:41:44;;;;;;;26.15;4.50;;;;;;;;;;5055959;28;20033;-75
2022/11/24 03:44:10;;;;;;;25.75;4.72;;;;;;;;;;5056580;28;20063;-75
2022/11/24 03:46:36;;;;;;;20.77;4.05;;;;;;;;;;5056397;28;20044;-75
2022/11/24 03:49:02;;;;;;;30.55;8.45;;;;;;;;;;5056421;28;20045;-75
2022/11/24 03:51:28;;;;;;;29.75;7.80;;;;;;;;;;5056019;28;20041;-75
2022/11/24 03:53:54;;;;;;;31.58;8.27;;;;;;;;;;5056285;28;20484;-75
2022/11/24 03:56:20;;;;;;;32.97;8.27;;;;;;;;;;5056367;28;20033;-75
2022/11/24 03:58:46;;;;;;;23.83;4.63;;;;;;;;;;5055892;28;20036;-75
2022/11/24 04:01:12;;;;;;;28.23;4.65;;;;;;;;;;5056099;28;20119;-75
2022/11/24 04:03:38;;;;;;;23.38;4.50;;;;;;;;;;5056022;28;20049;-75
2022/11/24 04:06:05;;;;;;;30.10;3.92;;;;;;;;;;5055728;28;20033;-75
2022/11/24 04:08:31;;;;;;;30.83;4.72;;;;;;;;;;5056104;28;20130;-75
2022/11/24 04:10:57;;;;;;;20.05;4.25;;;;;;;;;;5055791;28;20481;-75
2022/11/24 04:13:25;;;;;;;23.67;4.00;;;;;;;;;;5055857;28;20484;-75
2022/11/24 04:15:51;;;;;;;20.00;3.38;;;;;;;;;;5055133;28;20440;-75
2022/11/24 04:18:18;;;;;;;25.83;5.13;;;;;;;;;;5055744;28;20090;-75
2022/11/24 04:20:44;;;;;;;23.38;4.10;;;;;;;;;;5056402;28;20041;-75
2022/11/24 04:23:10;;;;;;;17.63;3.50;;;;;;;;;;5055625;28;20047;-75
2022/11/24 04:25:37;;;;;;;29.75;4.53;;;;;;;;;;5055123;28;20132;-75
2022/11/24 04:28:03;;;;;;;24.48;4.35;;;;;;;;;;5055590;28;20083;-75
2022/11/24 04:30:30;;;;;;;30.95;4.95;;;;;;;;;;5055893;28;20059;-75
2022/11/24 04:32:56;;;;;;;27.50;3.90;;;;;;;;;;5055500;28;20033;-75
2022/11/24 04:35:22;;;;;;;26.55;4.45;;;;;;;;;;5055218;28;20090;-75
2022/11/24 04:37:48;;;;;;;30.10;4.28;;;;;;;;;;5055382;28;20044;-75
2022/11/24 04:40:14;;;;;;;33.47;4.10;;;;;;;;;;5055469;28;20069;-75
2022/11/24 04:42:40;;;;;;;30.05;3.80;;;;;;;;;;5055061;28;20048;-75
2022/11/24 04:45:07;;;;;;;20.23;5.07;;;;;;;;;;5055237;28;20041;-75
2022/11/24 04:47:33;;;;;;;37.00;5.43;;;;;;;;;;5055325;28;20117;-75
2022/11/24 04:49:59;;;;;;;24.67;4.30;;;;;;;;;;5055488;28;20076;-75
2022/11/24 04:52:25;;;;;;;27.10;4.60;;;;;;;;;;5055163;28;20044;-75
2022/11/24 04:54:51;;;;;;;25.10;4.15;;;;;;;;;;5054692;28;20045;-75
2022/11/24 04:57:19;;;;;;;24.75;4.53;;;;;;;;;;5054785;28;20041;-75
2022/11/24 04:59:46;;;;;;;26.10;4.13;;;;;;;;;;5067401;28;20525;-75
2022/11/24 05:02:12;;;;;;;33.20;4.45;;;;;;;;;;5074487;28;20048;-75
2022/11/24 05:04:39;;;;;;;20.58;4.10;;;;;;;;;;5074923;28;20123;-73
2022/11/24 05:07:05;;;;;;;29.63;5.63;;;;;;;;;;5073658;28;20461;-73
2022/11/24 05:09:31;;;;;;;23.45;5.35;;;;;;;;;;5075204;28;20464;-73
2022/11/24 05:11:57;;;;;;;33.67;4.30;;;;;;;;;;5074547;28;20082;-73
2022/11/24 05:14:24;;;;;;;29.52;4.25;;;;;;;;;;5074434;28;20040;-74
2022/11/24 05:16:51;;;;;;;30.33;4.43;;;;;;;;;;5074746;28;20042;-74
2022/11/24 05:19:17;;;;;;;25.10;5.20;;;;;;;;;;5075357;28;20044;-73
2022/11/24 05:21:43;;;;;;;27.77;4.43;;;;;;;;;;5074577;28;20052;-74
2022/11/24 05:24:10;;;;;;;28.52;4.18;;;;;;;;;;5074915;28;20037;-74
2022/11/24 05:26:36;;;;;;;30.73;4.43;;;;;;;;;;5073960;28;20056;-73
2022/11/24 05:29:02;;;;;;;31.95;4.20;;;;;;;;;;5074316;28;20044;-74
2022/11/24 05:31:28;;;;;;;31.20;4.82;;;;;;;;;;5074581;28;20040;-74
2022/11/24 05:33:55;;;;;;;27.63;4.43;;;;;;;;;;5074469;28;20475;-74
2022/11/24 05:39:06;;;;;;;39.33;5.05;;;;;;;;;;5072741;28;20133;-75
2022/11/24 05:41:32;;;;;;;30.50;4.55;;;;;;;;;;5072888;28;20037;-75
2022/11/24 05:43:58;;;;;;;23.80;4.55;;;;;;;;;;5073012;28;20044;-75
2022/11/24 05:46:24;;;;;;;25.63;4.60;;;;;;;;;;5073786;28;20040;-75
2022/11/24 05:48:50;;;;;;;28.95;5.03;;;;;;;;;;5074005;28;20055;-75
2022/11/24 05:51:16;;;;;;;22.65;3.83;;;;;;;;;;5074336;28;20151;-75
2022/11/24 05:53:43;;;;;;;27.10;7.25;;;;;;;;;;5073931;28;20048;-75
2022/11/24 05:56:09;;;;;;;28.58;4.93;;;;;;;;;;5074007;28;20439;-75
2022/11/24 05:58:35;;;;;;;21.60;4.93;;;;;;;;;;5074227;28;20079;-75
2022/11/24 06:01:04;;;;;;;33.03;5.00;;;;;;;;;;5074471;28;20049;-75
2022/11/24 06:03:30;;;;;;;28.60;4.75;;;;;;;;;;5074022;28;20048;-75
2022/11/24 06:05:56;;;;;;;29.88;7.22;;;;;;;;;;5074123;28;20047;-75
2022/11/24 06:08:23;;;;;;;36.38;10.63;;;;;;;;;;5076549;28;20032;-75
2022/11/24 06:10:49;;;;;;;34.17;7.75;;;;;;;;;;5078046;28;20083;-75
2022/11/24 06:13:15;;;;;;;26.98;4.78;;;;;;;;;;5077848;28;20041;-75
2022/11/24 06:15:41;;;;;;;27.67;5.70;;;;;;;;;;5078630;28;20044;-75
2022/11/24 06:18:07;;;;;;;30.88;6.82;;;;;;;;;;5077744;28;20064;-75
2022/11/24 06:20:33;;;;;;;28.05;5.43;;;;;;;;;;5060663;28;20076;-75
2022/11/24 06:23:00;;;;;;;22.85;5.68;;;;;;;;;;5057093;28;20049;-75
2022/11/24 06:25:26;;;;;;;35.70;5.18;;;;;;;;;;5054205;28;20063;-75
2022/11/24 06:27:53;;;;;;;28.15;5.20;;;;;;;;;;5057203;28;20186;-75
2022/11/24 06:30:19;;;;;;;27.98;5.93;;;;;;;;;;5056816;28;20044;-75
2022/11/24 06:32:45;;;;;;;24.73;5.40;;;;;;;;;;5037755;28;20523;-75
2022/11/24 06:35:14;;;;;;;26.02;5.43;;;;;;;;;;5037420;28;20473;-75
2022/11/24 06:37:40;;;;;;;28.38;5.18;;;;;;;;;;5037636;28;20045;-75
2022/11/24 06:40:09;;;;;;;32.08;5.35;;;;;;;;;;5037307;28;20041;-75
2022/11/24 06:42:36;;;;;;;33.00;5.93;;;;;;;;;;5037876;28;20132;-75
2022/11/24 06:45:02;;;;;;;24.38;5.65;;;;;;;;;;5037823;28;20053;-75
2022/11/24 06:47:28;;;;;;;24.25;6.10;;;;;;;;;;5037543;28;20047;-75
2022/11/24 06:49:55;;;;;;;26.23;5.63;;;;;;;;;;5037818;28;20122;-73
2022/11/24 06:52:21;;;;;;;37.25;6.10;;;;;;;;;;5037149;28;20041;-74
2022/11/24 06:54:47;;;;;;;35.50;8.10;;;;;;;;;;5037026;28;20073;-74
2022/11/24 06:57:13;;;;;;;38.30;9.30;;;;;;;;;;5041312;28;20060;-73
2022/11/24 06:59:39;;;;;;;32.17;8.57;;;;;;;;;;5076870;28;20049;-74
2022/11/24 07:02:05;;;;;;;24.50;8.00;;;;;;;;;;5076892;28;20048;-74
2022/11/24 07:04:32;;;;;;;23.10;6.10;;;;;;;;;;5076889;28;20499;-74
2022/11/24 07:06:58;;;;;;;35.47;7.28;;;;;;;;;;5077333;28;20068;-74
2022/11/24 07:09:24;;;;;;;30.88;5.93;;;;;;;;;;5076772;28;20443;-73
2022/11/24 07:11:50;;;;;;;24.50;6.68;;;;;;;;;;5076958;28;20036;-74
2022/11/24 07:14:17;;;;;;;24.80;6.35;;;;;;;;;;5077047;28;20161;-74
2022/11/24 07:16:44;;;;;;;20.67;6.35;;;;;;;;;;5076911;28;20032;-74
2022/11/24 07:19:10;;;;;;;30.20;6.40;;;;;;;;;;5076192;28;20044;-74
2022/11/24 07:21:36;;;;;;;36.25;7.70;;;;;;;;;;5076574;28;20048;-74
2022/11/24 07:24:02;;;;;;;37.38;10.35;;;;;;;;;;5076624;28;20051;-74
2022/11/24 07:26:28;;;;;;;35.78;9.68;;;;;;;;;;5064039;28;20137;-74
2022/11/24 07:28:55;;;;;;;28.05;8.90;;;;;;;;;;5056237;28;20033;-74
2022/11/24 07:31:23;;;;;;;28.83;8.38;;;;;;;;;;5055391;28;20051;-75
2022/11/24 07:33:50;;;;;;;36.88;11.70;;;;;;;;;;5056037;28;20057;-74
2022/11/24 07:36:17;;;;;;;25.90;9.60;;;;;;;;;;5056676;28;20041;-74
2022/11/24 07:38:43;;;;;;;30.65;9.65;;;;;;;;;;5055879;28;20411;-74
2022/11/24 07:41:11;;;;;;;31.77;9.27;;;;;;;;;;5055583;28;20512;-74
2022/11/24 07:43:38;;;;;;;38.78;12.20;;;;;;;;;;5055821;28;20139;-74
2022/11/24 07:46:05;;;;;;;38.78;10.25;;;;;;;;;;5057235;28;20033;-74
2022/11/24 07:48:31;;;;;;;37.53;15.25;;;;;;;;;;5056056;28;20045;-74
2022/11/24 07:51:04;;;;;;;46.28;18.00;;;;;;;;;;5046002;28;20563;-74
2022/11/24 07:53:31;;;;;;;51.33;22.73;;;;;;;;;;5051615;28;20512;-74
2022/11/24 07:56:01;;;;;;;36.60;18.38;;;;;;;;;;5055093;28;20033;-74
2022/11/24 07:58:28;;;;;;;42.08;19.25;;;;;;;;;;5055089;28;20044;-74
2022/11/24 08:00:54;;;;;;;32.22;14.43;;;;;;;;;;5055900;28;20041;-74
2022/11/24 08:03:20;;;;;;;27.42;8.48;;;;;;;;;;5055529;28;20056;-74
2022/11/24 08:05:53;;;;;;;25.67;7.47;;;;;;;;;;5054413;28;20102;-74
2022/11/24 08:08:20;;;;;;;25.73;7.72;;;;;;;;;;5055148;28;20041;-73
2022/11/24 08:10:46;;;;;;;28.05;9.45;;;;;;;;;;5055235;28;20045;-74
2022/11/24 08:13:12;;;;;;;25.42;9.30;;;;;;;;;;5055629;28;20052;-75
2022/11/24 08:15:38;;;;;;;23.80;6.97;;;;;;;;;;5055490;28;20048;-74
2022/11/24 08:18:04;;;;;;;31.10;8.45;;;;;;;;;;5054389;28;20044;-73
2022/11/24 08:20:31;;;;;;;23.52;7.22;;;;;;;;;;5054599;28;20514;-74
2022/11/24 08:23:00;;;;;;;26.67;6.50;;;;;;;;;;5055625;28;20124;-74
2022/11/24 08:25:31;;;;;;;22.38;6.63;;;;;;;;;;5054601;28;20053;-74
2022/11/24 08:27:57;;;;;;;;;;;;;;;;;;5056315;28;20032;-74
2022/11/24 08:30:23;;;;;;;21.52;5.75;;;;;;;;;;5055808;28;19916;-74
2022/11/24 08:32:49;;;;;;;24.30;5.40;;;;;;;;;;5054622;28;20101;-74
2022/11/24 08:35:17;;;;;;;18.10;5.28;;;;;;;;;;5053903;28;20057;-74
2022/11/24 08:37:43;;;;;;;19.50;5.13;;;;;;;;;;5053817;28;20037;-75
2022/11/24 08:40:10;;;;;;;17.23;5.43;;;;;;;;;;5054478;28;20037;-74
2022/11/24 08:42:36;;;;;;;14.15;4.68;;;;;;;;;;5054265;28;20041;-74
2022/11/24 08:45:02;;;;;;;17.77;4.75;;;;;;;;;;5055405;28;20049;-74
2022/11/24 08:47:28;;;;;;;21.95;7.15;;;;;;;;;;5054302;28;20044;-74
2022/11/24 08:49:54;;;;;;;20.95;9.02;;;;;;;;;;5054263;28;20045;-74
2022/11/24 08:52:20;;;;;;;20.88;9.57;;;;;;;;;;5053961;28;20033;-74
2022/11/24 08:54:46;;;;;;;24.90;9.90;;;;;;;;;;5054118;28;20135;-73
2022/11/24 08:57:15;;;;;;;23.15;8.75;;;;;;;;;;5055032;28;20040;-74
2022/11/24 08:59:41;;;;;;;21.25;8.38;;;;;;;;;;5055430;28;20040;-74
2022/11/24 09:02:12;;;;;;;21.17;7.85;;;;;;;;;;5054562;28;20048;-74
2022/11/24 09:04:38;;;;;;;21.10;6.95;;;;;;;;;;5051232;28;20047;-75
2022/11/24 09:07:04;;;;;;;29.48;7.47;;;;;;;;;;5045915;28;20076;-74
2022/11/24 09:09:30;;;;;;;23.88;8.45;;;;;;;;;;5054298;28;20048;-74
2022/11/24 09:11:56;;;;;;;25.17;7.72;;;;;;;;;;5053815;28;20040;-75
2022/11/24 09:14:22;;;;;;;27.63;7.68;;;;;;;;;;5054831;28;20049;-74
2022/11/24 09:16:49;;;;;;;25.73;7.32;;;;;;;;;;5053034;28;20045;-74
2022/11/24 09:19:15;;;;;;;26.20;7.10;;;;;;;;;;5053313;28;20055;-73
2022/11/24 09:21:41;;;;;;;22.17;6.28;;;;;;;;;;5053823;28;20561;-74
2022/11/24 09:24:07;;;;;;;20.85;6.78;;;;;;;;;;5054154;28;20075;-74
2022/11/24 09:26:35;;;;;;;19.05;6.53;;;;;;;;;;5053614;28;20408;-74
2022/11/24 09:29:03;;;;;;;19.88;6.80;;;;;;;;;;5053844;28;20037;-74
2022/11/24 09:31:30;;;;;;;18.27;5.85;;;;;;;;;;5033708;28;20060;-74
2022/11/24 09:33:56;;;;;;;21.00;6.18;;;;;;;;;;5035526;28;20049;-74
2022/11/24 09:36:23;;;;;;;15.88;6.60;;;;;;;;;;5053634;28;20033;-74
2022/11/24 09:38:49;;;;;;;24.25;9.40;;;;;;;;;;5053180;28;20045;-74
2022/11/24 09:41:35;;;;;;;25.95;9.13;;;;;;;;;;5052340;28;20542;-74
2022/11/24 09:44:16;;;;;;;21.45;8.48;;;;;;;;;;5041915;28;20049;-74
2022/11/24 09:46:49;;;;;;;24.10;7.78;;;;;;;;;;5053472;28;20124;-74
2022/11/24 09:49:17;;;;;;;25.92;8.77;;;;;;;;;;5052673;28;20045;-74
2022/11/24 09:51:45;;;;;;;23.42;7.80;;;;;;;;;;5054044;28;20037;-75
2022/11/24 09:54:30;;;;;;;18.90;7.53;;;;;;;;;;5052846;28;20041;-74
2022/11/24 09:56:59;;;;;;;22.92;6.80;;;;;;;;;;5053093;28;20072;-74
2022/11/24 09:59:26;;;;;;;20.90;5.85;;;;;;;;;;5054633;28;20048;-74
2022/11/24 10:01:54;;;;;;;206.43;138.07;;;;;;;;;;5051994;28;20033;-74
2022/11/24 10:04:24;;;;;;;84.05;53.25;;;;;;;;;;5048454;28;20052;-74
2022/11/24 10:06:59;;;;;;;36.20;17.38;;;;;;;;;;5042859;28;20043;-74
2022/11/24 10:09:25;;;;;;;37.22;20.70;;;;;;;;;;5050942;28;20064;-74
2022/11/24 10:11:52;;;;;;;27.80;14.55;;;;;;;;;;5053596;28;20087;-74
2022/11/24 10:14:27;;;;;;;18.98;6.28;;;;;;;;;;5052714;28;20064;-75
2022/11/24 10:16:57;;;;;;;14.95;5.53;;;;;;;;;;5054016;28;20037;-74
2022/11/24 10:19:35;;;;;;;14.48;4.35;;;;;;;;;;5054268;28;20041;-75
2022/11/24 10:22:07;;;;;;;15.93;4.03;;;;;;;;;;5045996;28;20059;-74
2022/11/24 10:24:59;;;;;;;15.57;4.25;;;;;;;;;;5044401;28;20090;-73
2022/11/24 10:27:28;;;;;;;17.30;4.10;;;;;;;;;;5034174;28;20057;-74
2022/11/24 10:29:54;;;;;;;16.35;4.50;;;;;;;;;;5034446;28;20037;-74
2022/11/24 10:32:26;;;;;;;19.40;5.25;;;;;;;;;;5046260;28;20040;-74
2022/11/24 10:34:53;;;;;;;22.85;5.72;;;;;;;;;;5053946;28;20069;-74
2022/11/24 10:37:28;;;;;;;20.27;5.47;;;;;;;;;;5054078;28;20048;-74
2022/11/24 10:39:59;;;;;;;16.80;4.53;;;;;;;;;;5053377;28;20033;-74
2022/11/24 10:42:28;;;;;;;16.13;4.00;;;;;;;;;;5053044;28;20045;-74
2022/11/24 10:45:01;;;;;;;20.33;4.38;;;;;;;;;;5053757;28;20090;-74
2022/11/24 10:47:28;;;;;;;23.60;4.68;;;;;;;;;;5054222;28;20041;-74
2022/11/24 10:50:14;;;;;;;16.02;3.40;;;;;;;;;;5052932;28;20044;-73
2022/11/24 10:52:41;;;;;;;18.90;3.70;;;;;;;;;;5042003;28;20049;-73
2022/11/24 10:55:07;;;;;;;21.38;3.83;;;;;;;;;;5056381;28;20052;-73
2022/11/24 10:57:37;;;;;;;19.77;3.85;;;;;;;;;;5056929;28;20045;-73
2022/11/24 11:00:23;;;;;;;18.10;3.03;;;;;;;;;;5055925;28;20524;-74
2022/11/24 11:02:51;;;;;;;16.52;4.00;;;;;;;;;;5048936;28;20057;-73
2022/11/24 11:05:26;;;;;;;21.15;4.05;;;;;;;;;;5056791;28;20052;-73
2022/11/24 11:08:12;;;;;;;20.05;3.95;;;;;;;;;;5056535;28;20048;-73
2022/11/24 11:10:39;;;;;;;16.52;4.00;;;;;;;;;;5048186;28;20527;-73
2022/11/24 11:13:20;;;;;;;17.60;4.32;;;;;;;;;;5056218;28;20048;-73
2022/11/24 11:15:46;;;;;;;17.70;4.20;;;;;;;;;;5055853;28;20068;-74
2022/11/24 11:18:15;;;;;;;20.25;3.63;;;;;;;;;;5051680;28;20132;-74
2022/11/24 11:20:48;;;;;;;28.85;5.65;;;;;;;;;;5056227;28;20079;-72
2022/11/24 11:23:18;;;;;;;21.88;3.88;;;;;;;;;;5055515;28;20056;-72
2022/11/24 11:25:44;;;;;;;60.80;22.83;;;;;;;;;;5055556;28;20088;-73
2022/11/24 11:28:18;;;;;;;22.55;4.65;;;;;;;;;;5055615;28;20045;-73
2022/11/24 11:31:01;;;;;;;18.65;3.55;;;;;;;;;;5054868;28;20045;-73
2022/11/24 11:33:28;;;;;;;19.83;4.22;;;;;;;;;;5045601;28;20408;-74
2022/11/24 11:35:55;;;;;;;38.25;16.90;;;;;;;;;;5055395;28;20041;-73
2022/11/24 11:38:21;;;;;;;22.70;7.35;;;;;;;;;;5054696;28;20044;-73
2022/11/24 11:40:48;;;;;;;20.83;4.15;;;;;;;;;;5056195;28;20048;-75
2022/11/24 11:43:23;;;;;;;23.55;5.63;;;;;;;;;;5039312;28;20045;-74
2022/11/24 11:45:56;;;;;;;15.60;3.30;;;;;;;;;;5048743;28;20041;-74
2022/11/24 11:48:32;;;;;;;16.98;3.55;;;;;;;;;;5051409;28;20052;-74
2022/11/24 11:51:17;;;;;;;17.23;2.90;;;;;;;;;;5055977;28;20049;-74
2022/11/24 11:54:02;;;;;;;14.45;2.85;;;;;;;;;;5054888;28;20066;-75
2022/11/24 11:56:57;;;;;;;14.85;2.80;;;;;;;;;;5054508;28;20048;-75
2022/11/24 11:59:33;;;;;;;15.02;3.75;;;;;;;;;;5036838;28;20048;-75
2022/11/24 12:01:59;;;;;;;12.50;3.10;;;;;;;;;;5035352;28;20057;-74
2022/11/24 12:04:41;;;;;;;13.85;2.58;;;;;;;;;;5050453;28;20044;-74
2022/11/24 12:07:22;;;;;;;16.27;3.13;;;;;;;;;;5055353;28;20048;-75
2022/11/24 12:09:57;;;;;;;19.23;3.63;;;;;;;;;;5038242;28;20041;-75
2022/11/24 12:12:26;;;;;;;19.88;3.55;;;;;;;;;;5055163;28;20124;-74
2022/11/24 12:15:11;;;;;;;18.67;3.33;;;;;;;;;;5054444;28;20528;-75
2022/11/24 12:18:13;;;;;;;17.70;4.00;;;;;;;;;;5054933;28;20064;-75
2022/11/24 12:20:49;;;;;;;18.55;3.75;;;;;;;;;;5026820;28;20079;-75
2022/11/24 12:23:25;;;;;;;15.63;4.13;;;;;;;;;;5051149;28;20130;-75
2022/11/24 12:25:57;;;;;;;23.00;7.90;;;;;;;;;;5052208;28;20052;-75
2022/11/24 12:28:32;;;;;;;26.08;6.60;;;;;;;;;;5053975;28;20045;-75
2022/11/24 12:31:04;;;;;;;20.38;5.82;;;;;;;;;;5046260;28;20477;-75
2022/11/24 12:33:39;;;;;;;27.13;9.38;;;;;;;;;;5053846;28;20037;-75
2022/11/24 12:36:15;;;;;;;20.95;4.65;;;;;;;;;;5055433;28;20129;-75
2022/11/24 12:38:51;;;;;;;19.48;3.08;;;;;;;;;;5054035;28;20106;-75
2022/11/24 12:41:24;;;;;;;20.33;3.58;;;;;;;;;;5055302;28;20049;-75
2022/11/24 12:43:56;;;;;;;18.23;4.35;;;;;;;;;;5054734;28;20044;-80
2022/11/24 12:46:22;;;;;;;18.38;3.45;;;;;;;;;;5055593;28;20036;-73
2022/11/24 12:48:54;;;;;;;21.15;3.45;;;;;;;;;;5049006;28;20033;-73
2022/11/24 12:51:27;;;;;;;12.63;3.20;;;;;;;;;;5040005;28;20149;-74
2022/11/24 12:53:55;;;;;;;19.23;4.28;;;;;;;;;;5052989;28;20504;-74
2022/11/24 12:56:39;;;;;;;18.50;4.68;;;;;;;;;;5052860;28;20110;-73
2022/11/24 12:59:29;;;;;;;13.95;3.60;;;;;;;;;;5054541;28;20045;-74
2022/11/24 13:02:03;;;;;;;17.23;3.20;;;;;;;;;;5053347;28;20112;-74
2022/11/24 13:04:48;;;;;;;18.58;3.58;;;;;;;;;;5050337;28;20124;-74
2022/11/24 13:07:17;;;;;;;17.23;3.22;;;;;;;;;;5053700;28;20098;-74
2022/11/24 13:10:02;;;;;;;14.98;3.28;;;;;;;;;;5054423;28;20040;-74
2022/11/24 13:12:28;;;;;;;19.08;3.85;;;;;;;;;;5053226;28;20098;-74
2022/11/24 13:14:54;;;;;;;14.00;3.35;;;;;;;;;;5053794;28;20037;-74
2022/11/24 13:17:21;;;;;;;22.35;4.70;;;;;;;;;;5052967;28;20037;-74
2022/11/24 13:19:48;;;;;;;16.13;3.85;;;;;;;;;;5054312;28;20048;-74
2022/11/24 13:22:15;;;;;;;19.23;3.28;;;;;;;;;;5053970;28;20538;-74
2022/11/24 13:24:43;;;;;;;21.52;3.85;;;;;;;;;;5054164;28;20045;-74
2022/11/24 13:27:13;;;;;;;22.05;4.40;;;;;;;;;;5053578;28;20185;-74
2022/11/24 13:29:40;;;;;;;15.20;3.15;;;;;;;;;;5054018;28;20037;-74
2022/11/24 13:32:06;;;;;;;13.93;3.08;;;;;;;;;;5053569;28;20052;-74
2022/11/24 13:34:38;;;;;;;13.80;2.88;;;;;;;;;;5054851;28;20503;-74
2022/11/24 13:37:25;;;;;;;15.30;2.67;;;;;;;;;;5053919;28;20043;-74
2022/11/24 13:39:51;;;;;;;18.85;3.28;;;;;;;;;;5053397;28;20072;-74
2022/11/24 13:42:18;;;;;;;25.23;8.95;;;;;;;;;;5054061;28;20052;-74
2022/11/24 13:44:44;;;;;;;18.45;3.03;;;;;;;;;;5054478;28;20096;-74
2022/11/24 13:47:30;;;;;;;15.32;3.00;;;;;;;;;;5053389;28;20041;-74
2022/11/24 13:49:56;;;;;;;16.40;3.72;;;;;;;;;;5035080;28;20045;-74
2022/11/24 13:52:41;;;;;;;16.70;3.28;;;;;;;;;;5035128;28;20056;-74
2022/11/24 13:55:18;;;;;;;15.75;3.55;;;;;;;;;;5039056;28;20404;-74
2022/11/24 13:57:56;;;;;;;19.60;4.13;;;;;;;;;;5051705;28;20040;-74
2022/11/24 14:00:23;;;;;;;11.60;2.75;;;;;;;;;;5054883;28;20167;-74
2022/11/24 14:02:53;;;;;;;9.95;3.30;;;;;;;;;;5052281;28;20515;-74
2022/11/24 14:05:22;;;;;;;14.27;3.13;;;;;;;;;;5053581;28;20526;-74
2022/11/24 14:07:49;;;;;;;14.35;2.60;;;;;;;;;;5053088;28;20041;-74
2022/11/24 14:10:18;;;;;;;14.52;3.10;;;;;;;;;;5053084;28;20380;-74
2022/11/24 14:12:44;;;;;;;12.45;2.72;;;;;;;;;;5050458;28;20041;-74
2022/11/24 14:15:21;;;;;;;13.98;2.67;;;;;;;;;;5052644;28;20563;-74
2022/11/24 14:17:47;;;;;;;19.70;3.45;;;;;;;;;;5054384;28;20044;-74
2022/11/24 14:20:22;;;;;;;15.10;3.58;;;;;;;;;;5052031;28;20503;-73
2022/11/24 14:22:48;;;;;;;16.20;6.38;;;;;;;;;;5053800;28;20049;-73
2022/11/24 14:25:25;;;;;;;10.95;2.63;;;;;;;;;;5052633;28;20049;-73
2022/11/24 14:27:51;;;;;;;10.32;2.30;;;;;;;;;;5054571;28;20067;-73
2022/11/24 14:30:19;;;;;;;11.23;2.45;;;;;;;;;;5056959;28;20072;-73
2022/11/24 14:32:59;;;;;;;12.10;3.03;;;;;;;;;;5056212;28;20075;-73
2022/11/24 14:35:27;;;;;;;18.60;3.47;;;;;;;;;;5055116;28;20037;-73
2022/11/24 14:37:53;;;;;;;16.35;3.85;;;;;;;;;;5057259;28;20032;-73
2022/11/24 14:40:38;;;;;;;10.20;2.88;;;;;;;;;;5056557;28;20052;-73